PWSweather.com
Personal Weather Stations
Station Observations
KTXCARRO19
Carrollton, TX 75007

Carrollton, TX 75007

Lat: 33.003, Lon: -96.918

Elevation: 505

Station Type: WS-2813

High Low Average
Temperature 80.8°F27.1°C 52.9°F11.6°C 65.3°F18.5°C
Dew Point 63.2°F17.3°C 35.0°F1.7°C 44.2°F6.8°C
Winds 10.5 mph 16.9 kmh Calm Calm 3.0 mph SSE4.8 kmh SSE
Wind Gusts 13.6 mph21.9 kmh -- 4.0 mph6.4 kmh
Humidity 64% 34% 47%
Pressure 29.83 in1010.2 mb 29.54 in1000.3 mb -
Precipitation 0.00 in0.0 mm - -
Hour Temp Dew Point Humidity Winds Wind Gusts Pressure Precip Precip Rate Daily Precip Total
12:03 AM 58.3°F14.6°C 37.0°F2.8°C 45% 0.2 mph NNE0.3 kmh NNE 0.7 mph1.1 kmh 29.84 in1010.5 mb 0.00 in0.0 mm 0.00 in/hr0.0 mm/hr 0.00 in0.0 mm
12:08 AM 58.3°F14.6°C 37.5°F3.1°C 46% Calm Calm 0.7 mph1.1 kmh 29.83 in1010.2 mb 0.00 in0.0 mm 0.00 in/hr0.0 mm/hr 0.00 in0.0 mm
12:13 AM 58.1°F14.5°C 37.4°F3.0°C 46% Calm Calm 0.2 mph0.3 kmh 29.83 in1010.2 mb 0.00 in0.0 mm 0.00 in/hr0.0 mm/hr 0.00 in0.0 mm
12:18 AM 58.0°F14.4°C 37.3°F2.9°C 46% 0.4 mph NNE0.6 kmh NNE 0.4 mph0.6 kmh 29.83 in1010.2 mb 0.00 in0.0 mm 0.00 in/hr0.0 mm/hr 0.00 in0.0 mm
12:23 AM 57.6°F14.2°C 36.9°F2.7°C 46% 0.4 mph NNE0.6 kmh NNE 0.4 mph0.6 kmh 29.83 in1010.2 mb 0.00 in0.0 mm 0.00 in/hr0.0 mm/hr 0.00 in0.0 mm
12:28 AM 57.6°F14.2°C 36.9°F2.7°C 46% Calm Calm 0.4 mph0.6 kmh 29.83 in1010.2 mb 0.00 in0.0 mm 0.00 in/hr0.0 mm/hr 0.00 in0.0 mm
12:33 AM 57.4°F14.1°C 37.4°F3.0°C 47% Calm Calm -- 29.83 in1010.2 mb 0.00 in0.0 mm 0.00 in/hr0.0 mm/hr 0.00 in0.0 mm
12:38 AM 57.4°F14.1°C 37.4°F3.0°C 47% Calm Calm -- 29.83 in1010.2 mb 0.00 in0.0 mm 0.00 in/hr0.0 mm/hr 0.00 in0.0 mm
12:43 AM 57.4°F14.1°C 37.4°F3.0°C 47% Calm Calm -- 29.83 in1010.2 mb 0.00 in0.0 mm 0.00 in/hr0.0 mm/hr 0.00 in0.0 mm
12:48 AM 57.2°F14.0°C 37.2°F2.9°C 47% 0.2 mph NNE0.3 kmh NNE 0.2 mph0.3 kmh 29.83 in1010.2 mb 0.00 in0.0 mm 0.00 in/hr0.0 mm/hr 0.00 in0.0 mm
12:53 AM 56.9°F13.8°C 37.4°F3.0°C 48% Calm Calm 0.2 mph0.3 kmh 29.83 in1010.2 mb 0.00 in0.0 mm 0.00 in/hr0.0 mm/hr 0.00 in0.0 mm
12:58 AM 56.5°F13.6°C 37.0°F2.8°C 48% 0.4 mph NNE0.6 kmh NNE 0.7 mph1.1 kmh 29.83 in1010.2 mb 0.00 in0.0 mm 0.00 in/hr0.0 mm/hr 0.00 in0.0 mm
01:03 AM 56.2°F13.4°C 37.3°F2.9°C 49% 0.4 mph NNE0.6 kmh NNE 0.7 mph1.1 kmh 29.83 in1010.2 mb 0.00 in0.0 mm 0.00 in/hr0.0 mm/hr 0.00 in0.0 mm
01:08 AM 56.0°F13.3°C 37.1°F2.8°C 49% Calm Calm 0.7 mph1.1 kmh 29.83 in1010.2 mb 0.00 in0.0 mm 0.00 in/hr0.0 mm/hr 0.00 in0.0 mm
01:13 AM 56.2°F13.4°C 37.8°F3.2°C 50% Calm Calm -- 29.83 in1010.2 mb 0.00 in0.0 mm 0.00 in/hr0.0 mm/hr 0.00 in0.0 mm
01:18 AM 56.2°F13.4°C 37.8°F3.2°C 50% Calm Calm -- 29.82 in1009.8 mb 0.00 in0.0 mm 0.00 in/hr0.0 mm/hr 0.00 in0.0 mm
01:23 AM 56.2°F13.4°C 37.8°F3.2°C 50% Calm Calm -- 29.82 in1009.8 mb 0.00 in0.0 mm 0.00 in/hr0.0 mm/hr 0.00 in0.0 mm
01:28 AM 56.0°F13.3°C 37.6°F3.1°C 50% Calm Calm -- 29.82 in1009.8 mb 0.00 in0.0 mm 0.00 in/hr0.0 mm/hr 0.00 in0.0 mm
01:33 AM 55.8°F13.2°C 37.4°F3.0°C 50% Calm Calm -- 29.82 in1009.8 mb 0.00 in0.0 mm 0.00 in/hr0.0 mm/hr 0.00 in0.0 mm
01:38 AM 55.8°F13.2°C 37.4°F3.0°C 50% Calm Calm -- 29.82 in1009.8 mb 0.00 in0.0 mm 0.00 in/hr0.0 mm/hr 0.00 in0.0 mm
01:43 AM 55.6°F13.1°C 37.3°F2.9°C 50% Calm Calm -- 29.83 in1010.2 mb 0.00 in0.0 mm 0.00 in/hr0.0 mm/hr 0.00 in0.0 mm
01:48 AM 55.6°F13.1°C 37.3°F2.9°C 50% 0.4 mph NNE0.6 kmh NNE 0.4 mph0.6 kmh 29.82 in1009.8 mb 0.00 in0.0 mm 0.00 in/hr0.0 mm/hr 0.00 in0.0 mm
01:53 AM 55.4°F13.0°C 37.1°F2.8°C 50% Calm Calm 0.4 mph0.6 kmh 29.82 in1009.8 mb 0.00 in0.0 mm 0.00 in/hr0.0 mm/hr 0.00 in0.0 mm
01:58 AM 55.3°F12.9°C 36.9°F2.7°C 50% Calm Calm 0.4 mph0.6 kmh 29.82 in1009.8 mb 0.00 in0.0 mm 0.00 in/hr0.0 mm/hr 0.00 in0.0 mm
02:03 AM 55.3°F12.9°C 36.9°F2.7°C 50% Calm Calm -- 29.82 in1009.8 mb 0.00 in0.0 mm 0.00 in/hr0.0 mm/hr 0.00 in0.0 mm
02:08 AM 55.3°F12.9°C 36.9°F2.7°C 50% Calm Calm -- 29.82 in1009.8 mb 0.00 in0.0 mm 0.00 in/hr0.0 mm/hr 0.00 in0.0 mm
02:13 AM 55.4°F13.0°C 37.1°F2.8°C 50% Calm Calm -- 29.82 in1009.8 mb 0.00 in0.0 mm 0.00 in/hr0.0 mm/hr 0.00 in0.0 mm
02:18 AM 55.4°F13.0°C 37.1°F2.8°C 50% 0.4 mph NNE0.6 kmh NNE 0.4 mph0.6 kmh 29.82 in1009.8 mb 0.00 in0.0 mm 0.00 in/hr0.0 mm/hr 0.00 in0.0 mm
02:23 AM 55.4°F13.0°C 37.1°F2.8°C 50% Calm Calm 0.4 mph0.6 kmh 29.82 in1009.8 mb 0.00 in0.0 mm 0.00 in/hr0.0 mm/hr 0.00 in0.0 mm
02:28 AM 55.4°F13.0°C 36.6°F2.6°C 49% 0.2 mph NNE0.3 kmh NNE 0.2 mph0.3 kmh 29.82 in1009.8 mb 0.00 in0.0 mm 0.00 in/hr0.0 mm/hr 0.00 in0.0 mm
02:33 AM 55.4°F13.0°C 36.6°F2.6°C 49% Calm Calm 0.4 mph0.6 kmh 29.82 in1009.8 mb 0.00 in0.0 mm 0.00 in/hr0.0 mm/hr 0.00 in0.0 mm
02:38 AM 55.3°F12.9°C 36.9°F2.7°C 50% 0.2 mph NNE0.3 kmh NNE 0.4 mph0.6 kmh 29.82 in1009.8 mb 0.00 in0.0 mm 0.00 in/hr0.0 mm/hr 0.00 in0.0 mm
02:43 AM 55.3°F12.9°C 36.9°F2.7°C 50% Calm Calm 0.2 mph0.3 kmh 29.82 in1009.8 mb 0.00 in0.0 mm 0.00 in/hr0.0 mm/hr 0.00 in0.0 mm
02:48 AM 55.1°F12.8°C 36.7°F2.6°C 50% Calm Calm 0.2 mph0.3 kmh 29.82 in1009.8 mb 0.00 in0.0 mm 0.00 in/hr0.0 mm/hr 0.00 in0.0 mm
02:53 AM 55.1°F12.8°C 36.7°F2.6°C 50% Calm Calm -- 29.82 in1009.8 mb 0.00 in0.0 mm 0.00 in/hr0.0 mm/hr 0.00 in0.0 mm
02:58 AM 55.1°F12.8°C 36.2°F2.3°C 49% Calm Calm -- 29.82 in1009.8 mb 0.00 in0.0 mm 0.00 in/hr0.0 mm/hr 0.00 in0.0 mm
03:03 AM 55.3°F12.9°C 36.4°F2.4°C 49% Calm Calm -- 29.82 in1009.8 mb 0.00 in0.0 mm 0.00 in/hr0.0 mm/hr 0.00 in0.0 mm
03:08 AM 55.4°F13.0°C 36.6°F2.6°C 49% Calm Calm -- 29.81 in1009.5 mb 0.00 in0.0 mm 0.00 in/hr0.0 mm/hr 0.00 in0.0 mm
03:13 AM 55.4°F13.0°C 36.6°F2.6°C 49% Calm Calm 0.2 mph0.3 kmh 29.81 in1009.5 mb 0.00 in0.0 mm 0.00 in/hr0.0 mm/hr 0.00 in0.0 mm
03:18 AM 55.4°F13.0°C 36.6°F2.6°C 49% Calm Calm 0.2 mph0.3 kmh 29.81 in1009.5 mb 0.00 in0.0 mm 0.00 in/hr0.0 mm/hr 0.00 in0.0 mm
03:23 AM 55.3°F12.9°C 35.8°F2.1°C 48% 0.2 mph SE0.3 kmh SE 0.2 mph0.3 kmh 29.81 in1009.5 mb 0.00 in0.0 mm 0.00 in/hr0.0 mm/hr 0.00 in0.0 mm
03:28 AM 55.3°F12.9°C 35.8°F2.1°C 48% Calm Calm 0.2 mph0.3 kmh 29.81 in1009.5 mb 0.00 in0.0 mm 0.00 in/hr0.0 mm/hr 0.00 in0.0 mm
03:33 AM 55.1°F12.8°C 35.6°F2.0°C 48% Calm Calm -- 29.81 in1009.5 mb 0.00 in0.0 mm 0.00 in/hr0.0 mm/hr 0.00 in0.0 mm
03:38 AM 54.9°F12.7°C 36.0°F2.2°C 49% Calm Calm -- 29.81 in1009.5 mb 0.00 in0.0 mm 0.00 in/hr0.0 mm/hr 0.00 in0.0 mm
03:43 AM 54.9°F12.7°C 36.0°F2.2°C 49% Calm Calm -- 29.80 in1009.1 mb 0.00 in0.0 mm 0.00 in/hr0.0 mm/hr 0.00 in0.0 mm
03:48 AM 54.7°F12.6°C 35.9°F2.2°C 49% Calm Calm -- 29.80 in1009.1 mb 0.00 in0.0 mm 0.00 in/hr0.0 mm/hr 0.00 in0.0 mm
03:53 AM 54.4°F12.4°C 35.0°F1.7°C 48% Calm Calm -- 29.80 in1009.1 mb 0.00 in0.0 mm 0.00 in/hr0.0 mm/hr 0.00 in0.0 mm
03:58 AM 54.2°F12.3°C 35.4°F1.9°C 49% Calm Calm -- 29.80 in1009.1 mb 0.00 in0.0 mm 0.00 in/hr0.0 mm/hr 0.00 in0.0 mm
04:03 AM 54.0°F12.2°C 35.2°F1.8°C 49% Calm Calm -- 29.79 in1008.8 mb 0.00 in0.0 mm 0.00 in/hr0.0 mm/hr 0.00 in0.0 mm
04:08 AM 54.2°F12.3°C 35.4°F1.9°C 49% Calm Calm -- 29.79 in1008.8 mb 0.00 in0.0 mm 0.00 in/hr0.0 mm/hr 0.00 in0.0 mm
04:13 AM 54.2°F12.3°C 35.4°F1.9°C 49% Calm Calm -- 29.79 in1008.8 mb 0.00 in0.0 mm 0.00 in/hr0.0 mm/hr 0.00 in0.0 mm
04:18 AM 54.2°F12.3°C 35.4°F1.9°C 49% Calm Calm -- 29.78 in1008.5 mb 0.00 in0.0 mm 0.00 in/hr0.0 mm/hr 0.00 in0.0 mm
04:23 AM 54.4°F12.4°C 35.6°F2.0°C 49% Calm Calm -- 29.78 in1008.5 mb 0.00 in0.0 mm 0.00 in/hr0.0 mm/hr 0.00 in0.0 mm
04:28 AM 54.4°F12.4°C 35.6°F2.0°C 49% 0.4 mph ESE0.6 kmh ESE 0.4 mph0.6 kmh 29.78 in1008.5 mb 0.00 in0.0 mm 0.00 in/hr0.0 mm/hr 0.00 in0.0 mm
04:33 AM 54.4°F12.4°C 35.6°F2.0°C 49% Calm Calm 0.4 mph0.6 kmh 29.78 in1008.5 mb 0.00 in0.0 mm 0.00 in/hr0.0 mm/hr 0.00 in0.0 mm
04:38 AM 54.4°F12.4°C 35.6°F2.0°C 49% Calm Calm -- 29.78 in1008.5 mb 0.00 in0.0 mm 0.00 in/hr0.0 mm/hr 0.00 in0.0 mm
04:43 AM 54.4°F12.4°C 35.6°F2.0°C 49% Calm Calm -- 29.78 in1008.5 mb 0.00 in0.0 mm 0.00 in/hr0.0 mm/hr 0.00 in0.0 mm
04:48 AM 54.4°F12.4°C 35.6°F2.0°C 49% Calm Calm -- 29.78 in1008.5 mb 0.00 in0.0 mm 0.00 in/hr0.0 mm/hr 0.00 in0.0 mm
04:53 AM 54.4°F12.4°C 35.6°F2.0°C 49% Calm Calm -- 29.78 in1008.5 mb 0.00 in0.0 mm 0.00 in/hr0.0 mm/hr 0.00 in0.0 mm
04:58 AM 54.4°F12.4°C 35.6°F2.0°C 49% Calm Calm -- 29.78 in1008.5 mb 0.00 in0.0 mm 0.00 in/hr0.0 mm/hr 0.00 in0.0 mm
05:03 AM 54.4°F12.4°C 35.6°F2.0°C 49% Calm Calm -- 29.77 in1008.1 mb 0.00 in0.0 mm 0.00 in/hr0.0 mm/hr 0.00 in0.0 mm
05:08 AM 54.4°F12.4°C 35.6°F2.0°C 49% Calm Calm -- 29.78 in1008.5 mb 0.00 in0.0 mm 0.00 in/hr0.0 mm/hr 0.00 in0.0 mm
05:13 AM 54.2°F12.3°C 35.9°F2.2°C 50% Calm Calm -- 29.78 in1008.5 mb 0.00 in0.0 mm 0.00 in/hr0.0 mm/hr 0.00 in0.0 mm
05:18 AM 54.0°F12.2°C 35.8°F2.1°C 50% Calm Calm -- 29.77 in1008.1 mb 0.00 in0.0 mm 0.00 in/hr0.0 mm/hr 0.00 in0.0 mm
05:23 AM 54.0°F12.2°C 35.8°F2.1°C 50% Calm Calm -- 29.77 in1008.1 mb 0.00 in0.0 mm 0.00 in/hr0.0 mm/hr 0.00 in0.0 mm
05:28 AM 54.0°F12.2°C 35.8°F2.1°C 50% Calm Calm -- 29.77 in1008.1 mb 0.00 in0.0 mm 0.00 in/hr0.0 mm/hr 0.00 in0.0 mm
05:33 AM 54.0°F12.2°C 35.8°F2.1°C 50% Calm Calm -- 29.77 in1008.1 mb 0.00 in0.0 mm 0.00 in/hr0.0 mm/hr 0.00 in0.0 mm
05:38 AM 54.0°F12.2°C 36.3°F2.4°C 51% Calm Calm -- 29.77 in1008.1 mb 0.00 in0.0 mm 0.00 in/hr0.0 mm/hr 0.00 in0.0 mm
05:43 AM 53.8°F12.1°C 36.1°F2.3°C 51% Calm Calm -- 29.78 in1008.5 mb 0.00 in0.0 mm 0.00 in/hr0.0 mm/hr 0.00 in0.0 mm
05:48 AM 53.6°F12.0°C 35.9°F2.2°C 51% Calm Calm 0.4 mph0.6 kmh 29.78 in1008.5 mb 0.00 in0.0 mm 0.00 in/hr0.0 mm/hr 0.00 in0.0 mm
05:53 AM 53.5°F11.9°C 35.7°F2.1°C 51% Calm Calm 0.4 mph0.6 kmh 29.78 in1008.5 mb 0.00 in0.0 mm 0.00 in/hr0.0 mm/hr 0.00 in0.0 mm
05:58 AM 53.3°F11.8°C 36.1°F2.3°C 52% Calm Calm 0.2 mph0.3 kmh 29.78 in1008.5 mb 0.00 in0.0 mm 0.00 in/hr0.0 mm/hr 0.00 in0.0 mm
06:03 AM 53.3°F11.8°C 36.1°F2.3°C 52% Calm Calm -- 29.78 in1008.5 mb 0.00 in0.0 mm 0.00 in/hr0.0 mm/hr 0.00 in0.0 mm
06:08 AM 53.1°F11.7°C 35.9°F2.2°C 52% Calm Calm -- 29.78 in1008.5 mb 0.00 in0.0 mm 0.00 in/hr0.0 mm/hr 0.00 in0.0 mm
06:13 AM 52.9°F11.6°C 36.2°F2.3°C 53% Calm Calm -- 29.78 in1008.5 mb 0.00 in0.0 mm 0.00 in/hr0.0 mm/hr 0.00 in0.0 mm
06:18 AM 52.9°F11.6°C 36.2°F2.3°C 53% 0.3 mph S0.5 kmh S 0.4 mph0.6 kmh 29.77 in1008.1 mb 0.00 in0.0 mm 0.00 in/hr0.0 mm/hr 0.00 in0.0 mm
06:23 AM 52.9°F11.6°C 36.2°F2.3°C 53% 0.8 mph S1.3 kmh S 1.1 mph1.8 kmh 29.77 in1008.1 mb 0.00 in0.0 mm 0.00 in/hr0.0 mm/hr 0.00 in0.0 mm
06:28 AM 52.9°F11.6°C 36.2°F2.3°C 53% 1.0 mph S1.6 kmh S 1.3 mph2.1 kmh 29.77 in1008.1 mb 0.00 in0.0 mm 0.00 in/hr0.0 mm/hr 0.00 in0.0 mm
06:33 AM 53.1°F11.7°C 36.4°F2.4°C 53% 0.8 mph S1.3 kmh S 1.8 mph2.9 kmh 29.77 in1008.1 mb 0.00 in0.0 mm 0.00 in/hr0.0 mm/hr 0.00 in0.0 mm
06:38 AM 53.3°F11.8°C 36.6°F2.6°C 53% 0.3 mph SSW0.5 kmh SSW 2.5 mph4.0 kmh 29.77 in1008.1 mb 0.00 in0.0 mm 0.00 in/hr0.0 mm/hr 0.00 in0.0 mm
06:43 AM 53.6°F12.0°C 36.9°F2.7°C 53% 0.7 mph S1.1 kmh S 2.5 mph4.0 kmh 29.77 in1008.1 mb 0.00 in0.0 mm 0.00 in/hr0.0 mm/hr 0.00 in0.0 mm
06:48 AM 53.6°F12.0°C 36.9°F2.7°C 53% 0.6 mph S1.0 kmh S 1.1 mph1.8 kmh 29.78 in1008.5 mb 0.00 in0.0 mm 0.00 in/hr0.0 mm/hr 0.00 in0.0 mm
06:53 AM 53.8°F12.1°C 37.0°F2.8°C 53% 0.6 mph SE1.0 kmh SE 1.6 mph2.6 kmh 29.78 in1008.5 mb 0.00 in0.0 mm 0.00 in/hr0.0 mm/hr 0.00 in0.0 mm
06:58 AM 54.0°F12.2°C 37.2°F2.9°C 53% 1.8 mph S2.9 kmh S 1.8 mph2.9 kmh 29.78 in1008.5 mb 0.00 in0.0 mm 0.00 in/hr0.0 mm/hr 0.00 in0.0 mm
07:03 AM 54.2°F12.3°C 37.4°F3.0°C 53% 0.8 mph WSW1.3 kmh WSW 1.8 mph2.9 kmh 29.78 in1008.5 mb 0.00 in0.0 mm 0.00 in/hr0.0 mm/hr 0.00 in0.0 mm
07:08 AM 54.4°F12.4°C 37.5°F3.1°C 53% 0.2 mph SE0.3 kmh SE 1.1 mph1.8 kmh 29.78 in1008.5 mb 0.00 in0.0 mm 0.00 in/hr0.0 mm/hr 0.00 in0.0 mm
07:13 AM 54.4°F12.4°C 37.1°F2.8°C 52% Calm Calm 0.4 mph0.6 kmh 29.78 in1008.5 mb 0.00 in0.0 mm 0.00 in/hr0.0 mm/hr 0.00 in0.0 mm
07:18 AM 54.4°F12.4°C 37.1°F2.8°C 52% 0.4 mph SSE0.6 kmh SSE 0.4 mph0.6 kmh 29.78 in1008.5 mb 0.00 in0.0 mm 0.00 in/hr0.0 mm/hr 0.00 in0.0 mm
07:23 AM 54.4°F12.4°C 37.1°F2.8°C 52% Calm Calm 0.4 mph0.6 kmh 29.78 in1008.5 mb 0.00 in0.0 mm 0.00 in/hr0.0 mm/hr 0.00 in0.0 mm
07:28 AM 54.5°F12.5°C 37.2°F2.9°C 52% Calm Calm -- 29.78 in1008.5 mb 0.00 in0.0 mm 0.00 in/hr0.0 mm/hr 0.00 in0.0 mm
07:33 AM 54.5°F12.5°C 37.2°F2.9°C 52% 0.2 mph NNE0.3 kmh NNE 0.2 mph0.3 kmh 29.78 in1008.5 mb 0.00 in0.0 mm 0.00 in/hr0.0 mm/hr 0.00 in0.0 mm
07:38 AM 54.5°F12.5°C 37.7°F3.2°C 53% 0.2 mph NNE0.3 kmh NNE 0.2 mph0.3 kmh 29.77 in1008.1 mb 0.00 in0.0 mm 0.00 in/hr0.0 mm/hr 0.00 in0.0 mm
07:43 AM 54.5°F12.5°C 37.7°F3.2°C 53% 0.4 mph S0.6 kmh S 0.7 mph1.1 kmh 29.78 in1008.5 mb 0.00 in0.0 mm 0.00 in/hr0.0 mm/hr 0.00 in0.0 mm
07:48 AM 54.5°F12.5°C 37.7°F3.2°C 53% 1.1 mph SSW1.8 kmh SSW 1.1 mph1.8 kmh 29.78 in1008.5 mb 0.00 in0.0 mm 0.00 in/hr0.0 mm/hr 0.00 in0.0 mm
07:53 AM 54.5°F12.5°C 37.7°F3.2°C 53% 0.6 mph S1.0 kmh S 1.1 mph1.8 kmh 29.77 in1008.1 mb 0.00 in0.0 mm 0.00 in/hr0.0 mm/hr 0.00 in0.0 mm
07:58 AM 54.4°F12.4°C 38.0°F3.3°C 54% 0.8 mph S1.3 kmh S 1.1 mph1.8 kmh 29.77 in1008.1 mb 0.00 in0.0 mm 0.00 in/hr0.0 mm/hr 0.00 in0.0 mm
08:04 AM 54.4°F12.4°C 38.4°F3.6°C 55% 0.6 mph SSW1.0 kmh SSW 2.0 mph3.2 kmh 29.77 in1008.1 mb 0.00 in0.0 mm 0.00 in/hr0.0 mm/hr 0.00 in0.0 mm
08:09 AM 54.4°F12.4°C 38.9°F3.8°C 56% 1.4 mph SSW2.3 kmh SSW 2.0 mph3.2 kmh 29.78 in1008.5 mb 0.00 in0.0 mm 0.00 in/hr0.0 mm/hr 0.00 in0.0 mm
08:13 AM 54.4°F12.4°C 39.4°F4.1°C 57% 2.5 mph S4.0 kmh S 2.5 mph4.0 kmh 29.78 in1008.5 mb 0.00 in0.0 mm 0.00 in/hr0.0 mm/hr 0.00 in0.0 mm
08:18 AM 54.4°F12.4°C 39.4°F4.1°C 57% 2.2 mph SW3.5 kmh SW 2.7 mph4.3 kmh 29.78 in1008.5 mb 0.00 in0.0 mm 0.00 in/hr0.0 mm/hr 0.00 in0.0 mm
08:23 AM 54.7°F12.6°C 39.7°F4.3°C 57% 0.7 mph S1.1 kmh S 2.7 mph4.3 kmh 29.78 in1008.5 mb 0.00 in0.0 mm 0.00 in/hr0.0 mm/hr 0.00 in0.0 mm
08:28 AM 54.9°F12.7°C 39.9°F4.4°C 57% 1.1 mph S1.8 kmh S 2.0 mph3.2 kmh 29.78 in1008.5 mb 0.00 in0.0 mm 0.00 in/hr0.0 mm/hr 0.00 in0.0 mm
08:33 AM 55.3°F12.9°C 40.2°F4.6°C 57% 0.7 mph S1.1 kmh S 2.5 mph4.0 kmh 29.78 in1008.5 mb 0.00 in0.0 mm 0.00 in/hr0.0 mm/hr 0.00 in0.0 mm
08:38 AM 55.6°F13.1°C 40.5°F4.7°C 57% 0.4 mph SSE0.6 kmh SSE 2.5 mph4.0 kmh 29.78 in1008.5 mb 0.00 in0.0 mm 0.00 in/hr0.0 mm/hr 0.00 in0.0 mm
08:43 AM 56.0°F13.3°C 40.4°F4.7°C 56% 0.4 mph SW0.6 kmh SW 1.8 mph2.9 kmh 29.78 in1008.5 mb 0.00 in0.0 mm 0.00 in/hr0.0 mm/hr 0.00 in0.0 mm
08:48 AM 56.5°F13.6°C 41.0°F5.0°C 56% 1.1 mph S1.8 kmh S 1.8 mph2.9 kmh 29.78 in1008.5 mb 0.00 in0.0 mm 0.00 in/hr0.0 mm/hr 0.00 in0.0 mm
08:53 AM 56.7°F13.7°C 40.7°F4.8°C 55% 1.5 mph SW2.4 kmh SW 1.8 mph2.9 kmh 29.78 in1008.5 mb 0.00 in0.0 mm 0.00 in/hr0.0 mm/hr 0.00 in0.0 mm
08:58 AM 57.1°F13.9°C 41.0°F5.0°C 55% 2.3 mph S3.7 kmh S 2.9 mph4.7 kmh 29.78 in1008.5 mb 0.00 in0.0 mm 0.00 in/hr0.0 mm/hr 0.00 in0.0 mm
09:04 AM 57.2°F14.0°C 41.2°F5.1°C 55% 2.4 mph SW3.9 kmh SW 3.6 mph5.8 kmh 29.78 in1008.5 mb 0.00 in0.0 mm 0.00 in/hr0.0 mm/hr 0.00 in0.0 mm
09:09 AM 57.6°F14.2°C 41.6°F5.3°C 55% 2.5 mph SE4.0 kmh SE 3.6 mph5.8 kmh 29.78 in1008.5 mb 0.00 in0.0 mm 0.00 in/hr0.0 mm/hr 0.00 in0.0 mm
09:13 AM 57.8°F14.3°C 42.2°F5.7°C 56% 1.3 mph SSW2.1 kmh SSW 3.6 mph5.8 kmh 29.78 in1008.5 mb 0.00 in0.0 mm 0.00 in/hr0.0 mm/hr 0.00 in0.0 mm
09:18 AM 58.0°F14.4°C 42.3°F5.7°C 56% 0.8 mph SE1.3 kmh SE 2.7 mph4.3 kmh 29.78 in1008.5 mb 0.00 in0.0 mm 0.00 in/hr0.0 mm/hr 0.00 in0.0 mm
09:23 AM 58.3°F14.6°C 42.7°F5.9°C 56% 2.3 mph S3.7 kmh S 3.1 mph5.0 kmh 29.78 in1008.5 mb 0.00 in0.0 mm 0.00 in/hr0.0 mm/hr 0.00 in0.0 mm
09:28 AM 58.7°F14.8°C 43.0°F6.1°C 56% 2.0 mph SSW3.2 kmh SSW 3.1 mph5.0 kmh 29.79 in1008.8 mb 0.00 in0.0 mm 0.00 in/hr0.0 mm/hr 0.00 in0.0 mm
09:33 AM 59.0°F15.0°C 43.3°F6.3°C 56% 2.1 mph S3.4 kmh S 4.0 mph6.4 kmh 29.78 in1008.5 mb 0.00 in0.0 mm 0.00 in/hr0.0 mm/hr 0.00 in0.0 mm
09:38 AM 59.4°F15.2°C 43.2°F6.2°C 55% 2.3 mph SSW3.7 kmh SSW 4.0 mph6.4 kmh 29.78 in1008.5 mb 0.00 in0.0 mm 0.00 in/hr0.0 mm/hr 0.00 in0.0 mm
09:43 AM 59.8°F15.4°C 43.6°F6.4°C 55% 2.0 mph S3.2 kmh S 3.6 mph5.8 kmh 29.79 in1008.8 mb 0.00 in0.0 mm 0.00 in/hr0.0 mm/hr 0.00 in0.0 mm
09:48 AM 60.1°F15.6°C 43.4°F6.3°C 54% 2.5 mph S4.0 kmh S 3.1 mph5.0 kmh 29.79 in1008.8 mb 0.00 in0.0 mm 0.00 in/hr0.0 mm/hr 0.00 in0.0 mm
09:53 AM 60.5°F15.8°C 43.8°F6.6°C 54% 1.9 mph SSE3.1 kmh SSE 3.1 mph5.0 kmh 29.78 in1008.5 mb 0.00 in0.0 mm 0.00 in/hr0.0 mm/hr 0.00 in0.0 mm
09:58 AM 60.8°F16.0°C 44.1°F6.7°C 54% 1.3 mph S2.1 kmh S 3.1 mph5.0 kmh 29.78 in1008.5 mb 0.00 in0.0 mm 0.00 in/hr0.0 mm/hr 0.00 in0.0 mm
10:04 AM 61.2°F16.2°C 43.9°F6.6°C 53% 2.5 mph SW4.0 kmh SW 4.3 mph6.9 kmh 29.78 in1008.5 mb 0.00 in0.0 mm 0.00 in/hr0.0 mm/hr 0.00 in0.0 mm
10:09 AM 61.6°F16.4°C 44.2°F6.8°C 53% 3.8 mph S6.1 kmh S 4.7 mph7.6 kmh 29.78 in1008.5 mb 0.00 in0.0 mm 0.00 in/hr0.0 mm/hr 0.00 in0.0 mm
10:14 AM 61.9°F16.6°C 44.1°F6.7°C 52% 2.3 mph S3.7 kmh S 4.7 mph7.6 kmh 29.78 in1008.5 mb 0.00 in0.0 mm 0.00 in/hr0.0 mm/hr 0.00 in0.0 mm
10:18 AM 62.3°F16.8°C 44.4°F6.9°C 52% 3.8 mph SW6.1 kmh SW 4.7 mph7.6 kmh 29.78 in1008.5 mb 0.00 in0.0 mm 0.00 in/hr0.0 mm/hr 0.00 in0.0 mm
10:23 AM 62.6°F17.0°C 44.2°F6.8°C 51% 4.4 mph SW7.1 kmh SW 6.3 mph10.1 kmh 29.78 in1008.5 mb 0.00 in0.0 mm 0.00 in/hr0.0 mm/hr 0.00 in0.0 mm
10:28 AM 63.4°F17.4°C 43.8°F6.6°C 49% 3.6 mph S5.8 kmh S 6.3 mph10.1 kmh 29.77 in1008.1 mb 0.00 in0.0 mm 0.00 in/hr0.0 mm/hr 0.00 in0.0 mm
10:33 AM 63.7°F17.6°C 43.0°F6.1°C 47% 5.3 mph SSW8.5 kmh SSW 6.9 mph11.1 kmh 29.78 in1008.5 mb 0.00 in0.0 mm 0.00 in/hr0.0 mm/hr 0.00 in0.0 mm
10:38 AM 64.3°F17.9°C 42.9°F6.1°C 46% 3.3 mph S5.3 kmh S 6.9 mph11.1 kmh 29.78 in1008.5 mb 0.00 in0.0 mm 0.00 in/hr0.0 mm/hr 0.00 in0.0 mm
10:43 AM 64.8°F18.2°C 43.4°F6.3°C 46% 4.2 mph SW6.8 kmh SW 6.3 mph10.1 kmh 29.78 in1008.5 mb 0.00 in0.0 mm 0.00 in/hr0.0 mm/hr 0.00 in0.0 mm
10:48 AM 65.3°F18.5°C 43.4°F6.3°C 45% 6.2 mph SW10.0 kmh SW 7.8 mph12.6 kmh 29.77 in1008.1 mb 0.00 in0.0 mm 0.00 in/hr0.0 mm/hr 0.00 in0.0 mm
10:53 AM 65.9°F18.8°C 43.8°F6.6°C 45% 4.1 mph SSW6.6 kmh SSW 7.8 mph12.6 kmh 29.77 in1008.1 mb 0.00 in0.0 mm 0.00 in/hr0.0 mm/hr 0.00 in0.0 mm
10:58 AM 66.2°F19.0°C 44.2°F6.8°C 45% 3.3 mph SW5.3 kmh SW 5.4 mph8.7 kmh 29.77 in1008.1 mb 0.00 in0.0 mm 0.00 in/hr0.0 mm/hr 0.00 in0.0 mm
11:04 AM 66.8°F19.3°C 44.1°F6.7°C 44% 5.6 mph WSW9.0 kmh WSW 7.2 mph11.6 kmh 29.77 in1008.1 mb 0.00 in0.0 mm 0.00 in/hr0.0 mm/hr 0.00 in0.0 mm
11:09 AM 67.3°F19.6°C 44.0°F6.7°C 43% 4.4 mph SSW7.1 kmh SSW 7.2 mph11.6 kmh 29.77 in1008.1 mb 0.00 in0.0 mm 0.00 in/hr0.0 mm/hr 0.00 in0.0 mm
11:14 AM 68.2°F20.1°C 45.4°F7.4°C 44% 2.7 mph SW4.3 kmh SW 7.6 mph12.2 kmh 29.77 in1008.1 mb 0.00 in0.0 mm 0.00 in/hr0.0 mm/hr 0.00 in0.0 mm
11:19 AM 68.8°F20.4°C 45.3°F7.4°C 43% 3.8 mph SW6.1 kmh SW 7.6 mph12.2 kmh 29.76 in1007.8 mb 0.00 in0.0 mm 0.00 in/hr0.0 mm/hr 0.00 in0.0 mm
11:23 AM 69.3°F20.7°C 45.2°F7.3°C 42% 3.6 mph SW5.8 kmh SW 7.6 mph12.2 kmh 29.77 in1008.1 mb 0.00 in0.0 mm 0.00 in/hr0.0 mm/hr 0.00 in0.0 mm
11:28 AM 69.8°F21.0°C 45.1°F7.3°C 41% 2.5 mph SSW4.0 kmh SSW 7.6 mph12.2 kmh 29.76 in1007.8 mb 0.00 in0.0 mm 0.00 in/hr0.0 mm/hr 0.00 in0.0 mm
11:33 AM 70.4°F21.3°C 45.5°F7.5°C 41% 4.7 mph SW7.6 kmh SW 5.8 mph9.3 kmh 29.76 in1007.8 mb 0.00 in0.0 mm 0.00 in/hr0.0 mm/hr 0.00 in0.0 mm
11:38 AM 71.1°F21.7°C 45.6°F7.6°C 40% 4.0 mph WSW6.4 kmh WSW 8.3 mph13.4 kmh 29.76 in1007.8 mb 0.00 in0.0 mm 0.00 in/hr0.0 mm/hr 0.00 in0.0 mm
11:43 AM 71.6°F22.0°C 46.7°F8.2°C 41% 3.0 mph SSW4.8 kmh SSW 8.3 mph13.4 kmh 29.76 in1007.8 mb 0.00 in0.0 mm 0.00 in/hr0.0 mm/hr 0.00 in0.0 mm
11:48 AM 72.2°F22.3°C 47.2°F8.4°C 41% 3.3 mph SSW5.3 kmh SSW 6.3 mph10.1 kmh 29.76 in1007.8 mb 0.00 in0.0 mm 0.00 in/hr0.0 mm/hr 0.00 in0.0 mm
11:53 AM 72.7°F22.6°C 47.1°F8.4°C 40% 6.8 mph SW10.9 kmh SW 6.9 mph11.1 kmh 29.75 in1007.5 mb 0.00 in0.0 mm 0.00 in/hr0.0 mm/hr 0.00 in0.0 mm
11:58 AM 73.1°F22.8°C 47.3°F8.5°C 40% 3.0 mph SW4.8 kmh SW 6.9 mph11.1 kmh 29.75 in1007.5 mb 0.00 in0.0 mm 0.00 in/hr0.0 mm/hr 0.00 in0.0 mm
12:04 PM 73.6°F23.1°C 47.9°F8.8°C 40% 8.1 mph S13.0 kmh S 9.6 mph15.4 kmh 29.75 in1007.5 mb 0.00 in0.0 mm 0.00 in/hr0.0 mm/hr 0.00 in0.0 mm
12:09 PM 74.0°F23.3°C 48.2°F9.0°C 40% 3.6 mph SSW5.8 kmh SSW 9.6 mph15.4 kmh 29.75 in1007.5 mb 0.00 in0.0 mm 0.00 in/hr0.0 mm/hr 0.00 in0.0 mm
12:14 PM 74.5°F23.6°C 47.9°F8.8°C 39% 6.5 mph S10.5 kmh S 8.1 mph13.0 kmh 29.75 in1007.5 mb 0.00 in0.0 mm 0.00 in/hr0.0 mm/hr 0.00 in0.0 mm
12:19 PM 74.9°F23.8°C 47.5°F8.6°C 38% 5.5 mph SW8.9 kmh SW 8.1 mph13.0 kmh 29.75 in1007.5 mb 0.00 in0.0 mm 0.00 in/hr0.0 mm/hr 0.00 in0.0 mm
12:23 PM 75.2°F24.0°C 48.6°F9.2°C 39% 2.3 mph WSW3.7 kmh WSW 8.1 mph13.0 kmh 29.74 in1007.1 mb 0.00 in0.0 mm 0.00 in/hr0.0 mm/hr 0.00 in0.0 mm
12:28 PM 75.6°F24.2°C 48.9°F9.4°C 39% 8.0 mph SW12.9 kmh SW 11.0 mph17.7 kmh 29.74 in1007.1 mb 0.00 in0.0 mm 0.00 in/hr0.0 mm/hr 0.00 in0.0 mm
12:33 PM 76.0°F24.4°C 48.4°F9.1°C 38% 3.3 mph SSW5.3 kmh SSW 11.0 mph17.7 kmh 29.74 in1007.1 mb 0.00 in0.0 mm 0.00 in/hr0.0 mm/hr 0.00 in0.0 mm
12:38 PM 76.1°F24.5°C 48.6°F9.2°C 38% 5.6 mph S9.0 kmh S 7.8 mph12.6 kmh 29.73 in1006.8 mb 0.00 in0.0 mm 0.00 in/hr0.0 mm/hr 0.00 in0.0 mm
12:43 PM 76.5°F24.7°C 48.2°F9.0°C 37% 6.3 mph WSW10.1 kmh WSW 8.7 mph14.0 kmh 29.73 in1006.8 mb 0.00 in0.0 mm 0.00 in/hr0.0 mm/hr 0.00 in0.0 mm
12:48 PM 76.7°F24.8°C 48.3°F9.1°C 37% 5.3 mph WSW8.5 kmh WSW 8.7 mph14.0 kmh 29.73 in1006.8 mb 0.00 in0.0 mm 0.00 in/hr0.0 mm/hr 0.00 in0.0 mm
12:53 PM 77.0°F25.0°C 48.7°F9.3°C 37% 6.8 mph S10.9 kmh S 9.2 mph14.8 kmh 29.72 in1006.4 mb 0.00 in0.0 mm 0.00 in/hr0.0 mm/hr 0.00 in0.0 mm
12:58 PM 77.2°F25.1°C 48.9°F9.4°C 37% 2.6 mph W4.2 kmh W 9.2 mph14.8 kmh 29.72 in1006.4 mb 0.00 in0.0 mm 0.00 in/hr0.0 mm/hr 0.00 in0.0 mm
01:04 PM 77.4°F25.2°C 49.0°F9.4°C 37% 4.1 mph WSW6.6 kmh WSW 7.4 mph11.9 kmh 29.72 in1006.4 mb 0.00 in0.0 mm 0.00 in/hr0.0 mm/hr 0.00 in0.0 mm
01:09 PM 77.8°F25.4°C 49.3°F9.6°C 37% 5.3 mph SW8.5 kmh SW 7.4 mph11.9 kmh 29.71 in1006.1 mb 0.00 in0.0 mm 0.00 in/hr0.0 mm/hr 0.00 in0.0 mm
01:14 PM 78.1°F25.6°C 48.1°F8.9°C 35% 4.2 mph SW6.8 kmh SW 6.5 mph10.5 kmh 29.72 in1006.4 mb 0.00 in0.0 mm 0.00 in/hr0.0 mm/hr 0.00 in0.0 mm
01:19 PM 78.1°F25.6°C 48.9°F9.4°C 36% 5.6 mph S9.0 kmh S 8.3 mph13.4 kmh 29.71 in1006.1 mb 0.00 in0.0 mm 0.00 in/hr0.0 mm/hr 0.00 in0.0 mm
01:24 PM 78.5°F25.8°C 50.0°F10.0°C 37% 1.8 mph ESE2.9 kmh ESE 8.3 mph13.4 kmh 29.70 in1005.8 mb 0.00 in0.0 mm 0.00 in/hr0.0 mm/hr 0.00 in0.0 mm
01:29 PM 78.5°F25.8°C 49.1°F9.5°C 36% 5.9 mph S9.5 kmh S 9.2 mph14.8 kmh 29.70 in1005.8 mb 0.00 in0.0 mm 0.00 in/hr0.0 mm/hr 0.00 in0.0 mm
01:33 PM 78.7°F25.9°C 49.3°F9.6°C 36% 3.8 mph SSW6.1 kmh SSW 9.2 mph14.8 kmh 29.70 in1005.8 mb 0.00 in0.0 mm 0.00 in/hr0.0 mm/hr 0.00 in0.0 mm
01:38 PM 78.8°F26.0°C 50.2°F10.1°C 37% 5.6 mph S9.0 kmh S 7.6 mph12.2 kmh 29.70 in1005.8 mb 0.00 in0.0 mm 0.00 in/hr0.0 mm/hr 0.00 in0.0 mm
01:43 PM 79.0°F26.1°C 50.4°F10.2°C 37% 6.3 mph S10.1 kmh S 7.6 mph12.2 kmh 29.69 in1005.4 mb 0.00 in0.0 mm 0.00 in/hr0.0 mm/hr 0.00 in0.0 mm
01:48 PM 79.0°F26.1°C 50.4°F10.2°C 37% 1.6 mph S2.6 kmh S 7.2 mph11.6 kmh 29.69 in1005.4 mb 0.00 in0.0 mm 0.00 in/hr0.0 mm/hr 0.00 in0.0 mm
01:53 PM 79.0°F26.1°C 50.4°F10.2°C 37% 2.3 mph SW3.7 kmh SW 3.6 mph5.8 kmh 29.68 in1005.1 mb 0.00 in0.0 mm 0.00 in/hr0.0 mm/hr 0.00 in0.0 mm
01:58 PM 79.0°F26.1°C 50.4°F10.2°C 37% 3.8 mph SSW6.1 kmh SSW 5.1 mph8.2 kmh 29.68 in1005.1 mb 0.00 in0.0 mm 0.00 in/hr0.0 mm/hr 0.00 in0.0 mm
02:04 PM 79.2°F26.2°C 50.6°F10.3°C 37% 3.1 mph SSW5.0 kmh SSW 5.4 mph8.7 kmh 29.68 in1005.1 mb 0.00 in0.0 mm 0.00 in/hr0.0 mm/hr 0.00 in0.0 mm
02:09 PM 79.0°F26.1°C 50.4°F10.2°C 37% 4.3 mph SSW6.9 kmh SSW 6.0 mph9.7 kmh 29.67 in1004.7 mb 0.00 in0.0 mm 0.00 in/hr0.0 mm/hr 0.00 in0.0 mm
02:14 PM 79.2°F26.2°C 49.8°F9.9°C 36% 5.5 mph SW8.9 kmh SW 6.5 mph10.5 kmh 29.67 in1004.7 mb 0.00 in0.0 mm 0.00 in/hr0.0 mm/hr 0.00 in0.0 mm
02:19 PM 79.0°F26.1°C 50.4°F10.2°C 37% 2.6 mph S4.2 kmh S 6.5 mph10.5 kmh 29.67 in1004.7 mb 0.00 in0.0 mm 0.00 in/hr0.0 mm/hr 0.00 in0.0 mm
02:24 PM 79.2°F26.2°C 50.6°F10.3°C 37% 1.5 mph SSW2.4 kmh SSW 5.8 mph9.3 kmh 29.66 in1004.4 mb 0.00 in0.0 mm 0.00 in/hr0.0 mm/hr 0.00 in0.0 mm
02:29 PM 79.6°F26.4°C 49.3°F9.6°C 35% 4.9 mph S7.9 kmh S 6.9 mph11.1 kmh 29.66 in1004.4 mb 0.00 in0.0 mm 0.00 in/hr0.0 mm/hr 0.00 in0.0 mm
02:34 PM 79.6°F26.4°C 50.1°F10.1°C 36% 6.1 mph WSW9.8 kmh WSW 9.6 mph15.4 kmh 29.65 in1004.1 mb 0.00 in0.0 mm 0.00 in/hr0.0 mm/hr 0.00 in0.0 mm
02:38 PM 79.6°F26.4°C 50.9°F10.5°C 37% 1.3 mph SW2.1 kmh SW 9.6 mph15.4 kmh 29.65 in1004.1 mb 0.00 in0.0 mm 0.00 in/hr0.0 mm/hr 0.00 in0.0 mm
02:43 PM 79.7°F26.5°C 48.7°F9.3°C 34% 5.1 mph SSW8.2 kmh SSW 7.4 mph11.9 kmh 29.65 in1004.1 mb 0.00 in0.0 mm 0.00 in/hr0.0 mm/hr 0.00 in0.0 mm
02:48 PM 79.7°F26.5°C 48.7°F9.3°C 34% 3.3 mph SW5.3 kmh SW 7.4 mph11.9 kmh 29.64 in1003.7 mb 0.00 in0.0 mm 0.00 in/hr0.0 mm/hr 0.00 in0.0 mm
02:53 PM 79.9°F26.6°C 49.7°F9.8°C 35% 5.5 mph SW8.9 kmh SW 6.3 mph10.1 kmh 29.64 in1003.7 mb 0.00 in0.0 mm 0.00 in/hr0.0 mm/hr 0.00 in0.0 mm
02:58 PM 80.1°F26.7°C 49.9°F9.9°C 35% 4.8 mph SW7.7 kmh SW 6.3 mph10.1 kmh 29.63 in1003.4 mb 0.00 in0.0 mm 0.00 in/hr0.0 mm/hr 0.00 in0.0 mm
03:04 PM 80.3°F26.8°C 50.0°F10.0°C 35% 6.1 mph SW9.8 kmh SW 7.6 mph12.2 kmh 29.64 in1003.7 mb 0.00 in0.0 mm 0.00 in/hr0.0 mm/hr 0.00 in0.0 mm
03:09 PM 80.3°F26.8°C 49.2°F9.6°C 34% 4.2 mph S6.8 kmh S 7.6 mph12.2 kmh 29.63 in1003.4 mb 0.00 in0.0 mm 0.00 in/hr0.0 mm/hr 0.00 in0.0 mm
03:14 PM 80.3°F26.8°C 50.0°F10.0°C 35% 4.2 mph WSW6.8 kmh WSW 6.0 mph9.7 kmh 29.63 in1003.4 mb 0.00 in0.0 mm 0.00 in/hr0.0 mm/hr 0.00 in0.0 mm
03:19 PM 80.3°F26.8°C 49.2°F9.6°C 34% 5.6 mph SW9.0 kmh SW 6.5 mph10.5 kmh 29.63 in1003.4 mb 0.00 in0.0 mm 0.00 in/hr0.0 mm/hr 0.00 in0.0 mm
03:24 PM 80.3°F26.8°C 49.2°F9.6°C 34% 4.9 mph S7.9 kmh S 6.5 mph10.5 kmh 29.62 in1003.0 mb 0.00 in0.0 mm 0.00 in/hr0.0 mm/hr 0.00 in0.0 mm
03:29 PM 80.3°F26.8°C 50.0°F10.0°C 35% 4.1 mph SW6.6 kmh SW 6.3 mph10.1 kmh 29.62 in1003.0 mb 0.00 in0.0 mm 0.00 in/hr0.0 mm/hr 0.00 in0.0 mm
03:34 PM 80.3°F26.8°C 49.2°F9.6°C 34% 3.1 mph SW5.0 kmh SW 4.7 mph7.6 kmh 29.61 in1002.7 mb 0.00 in0.0 mm 0.00 in/hr0.0 mm/hr 0.00 in0.0 mm
03:38 PM 80.5°F26.9°C 50.1°F10.1°C 35% 4.0 mph SW6.4 kmh SW 4.0 mph6.4 kmh 29.61 in1002.7 mb 0.00 in0.0 mm 0.00 in/hr0.0 mm/hr 0.00 in0.0 mm
03:43 PM 80.6°F27.0°C 49.5°F9.7°C 34% 5.8 mph S9.3 kmh S 6.9 mph11.1 kmh 29.60 in1002.4 mb 0.00 in0.0 mm 0.00 in/hr0.0 mm/hr 0.00 in0.0 mm
03:48 PM 80.6°F27.0°C 49.5°F9.7°C 34% 2.7 mph SW4.3 kmh SW 6.9 mph11.1 kmh 29.60 in1002.4 mb 0.00 in0.0 mm 0.00 in/hr0.0 mm/hr 0.00 in0.0 mm
03:52 PM 80.6°F27.0°C 49.5°F9.7°C 34% 3.3 mph SW5.3 kmh SW 6.3 mph10.1 kmh 29.60 in1002.4 mb 0.00 in0.0 mm 0.00 in/hr0.0 mm/hr 0.00 in0.0 mm
03:58 PM 80.6°F27.0°C 49.5°F9.7°C 34% 6.4 mph SSW10.3 kmh SSW 8.1 mph13.0 kmh 29.60 in1002.4 mb 0.00 in0.0 mm 0.00 in/hr0.0 mm/hr 0.00 in0.0 mm
04:04 PM 80.6°F27.0°C 49.5°F9.7°C 34% 4.4 mph SW7.1 kmh SW 8.5 mph13.7 kmh 29.59 in1002.0 mb 0.00 in0.0 mm 0.00 in/hr0.0 mm/hr 0.00 in0.0 mm
04:09 PM 80.6°F27.0°C 49.5°F9.7°C 34% 3.6 mph S5.8 kmh S 8.5 mph13.7 kmh 29.59 in1002.0 mb 0.00 in0.0 mm 0.00 in/hr0.0 mm/hr 0.00 in0.0 mm
04:14 PM 80.8°F27.1°C 50.5°F10.3°C 35% 6.1 mph SW9.8 kmh SW 6.9 mph11.1 kmh 29.58 in1001.7 mb 0.00 in0.0 mm 0.00 in/hr0.0 mm/hr 0.00 in0.0 mm
04:19 PM 80.8°F27.1°C 50.5°F10.3°C 35% 5.3 mph S8.5 kmh S 7.4 mph11.9 kmh 29.58 in1001.7 mb 0.00 in0.0 mm 0.00 in/hr0.0 mm/hr 0.00 in0.0 mm
04:24 PM 80.8°F27.1°C 52.0°F11.1°C 37% 10.5 mph SW16.9 kmh SW 13.6 mph21.9 kmh 29.58 in1001.7 mb 0.00 in0.0 mm 0.00 in/hr0.0 mm/hr 0.00 in0.0 mm
04:29 PM 80.6°F27.0°C 51.8°F11.0°C 37% 7.1 mph SSW11.4 kmh SSW 13.6 mph21.9 kmh 29.58 in1001.7 mb 0.00 in0.0 mm 0.00 in/hr0.0 mm/hr 0.00 in0.0 mm
04:32 PM 80.6°F27.0°C 51.8°F11.0°C 37% 4.9 mph WSW7.9 kmh WSW 13.6 mph21.9 kmh 29.58 in1001.7 mb 0.00 in0.0 mm 0.00 in/hr0.0 mm/hr 0.00 in0.0 mm
04:38 PM 80.6°F27.0°C 51.8°F11.0°C 37% 3.5 mph S5.6 kmh S 9.6 mph15.4 kmh 29.57 in1001.4 mb 0.00 in0.0 mm 0.00 in/hr0.0 mm/hr 0.00 in0.0 mm
04:43 PM 80.6°F27.0°C 57.9°F14.4°C 46% 7.6 mph S12.2 kmh S 11.2 mph18.0 kmh 29.57 in1001.4 mb 0.00 in0.0 mm 0.00 in/hr0.0 mm/hr 0.00 in0.0 mm
04:48 PM 80.3°F26.8°C 57.5°F14.2°C 46% 6.9 mph SW11.1 kmh SW 11.2 mph18.0 kmh 29.57 in1001.4 mb 0.00 in0.0 mm 0.00 in/hr0.0 mm/hr 0.00 in0.0 mm
04:53 PM 79.9°F26.6°C 59.0°F15.0°C 49% 4.4 mph SW7.1 kmh SW 8.7 mph14.0 kmh 29.57 in1001.4 mb 0.00 in0.0 mm 0.00 in/hr0.0 mm/hr 0.00 in0.0 mm
04:58 PM 79.7°F26.5°C 59.5°F15.3°C 50% 5.2 mph SW8.4 kmh SW 8.7 mph14.0 kmh 29.57 in1001.4 mb 0.00 in0.0 mm 0.00 in/hr0.0 mm/hr 0.00 in0.0 mm
05:04 PM 79.6°F26.4°C 59.9°F15.5°C 51% 5.9 mph S9.5 kmh S 8.1 mph13.0 kmh 29.57 in1001.4 mb 0.00 in0.0 mm 0.00 in/hr0.0 mm/hr 0.00 in0.0 mm
05:09 PM 79.4°F26.3°C 60.8°F16.0°C 53% 6.1 mph S9.8 kmh S 8.1 mph13.0 kmh 29.57 in1001.4 mb 0.00 in0.0 mm 0.00 in/hr0.0 mm/hr 0.00 in0.0 mm
05:14 PM 79.2°F26.2°C 61.1°F16.2°C 54% 7.5 mph S12.1 kmh S 10.3 mph16.6 kmh 29.57 in1001.4 mb 0.00 in0.0 mm 0.00 in/hr0.0 mm/hr 0.00 in0.0 mm
05:19 PM 78.8°F26.0°C 61.3°F16.3°C 55% 3.1 mph SW5.0 kmh SW 10.3 mph16.6 kmh 29.57 in1001.4 mb 0.00 in0.0 mm 0.00 in/hr0.0 mm/hr 0.00 in0.0 mm
05:24 PM 78.8°F26.0°C 61.3°F16.3°C 55% 4.7 mph SE7.6 kmh SE 8.3 mph13.4 kmh 29.57 in1001.4 mb 0.00 in0.0 mm 0.00 in/hr0.0 mm/hr 0.00 in0.0 mm
05:29 PM 78.5°F25.8°C 62.5°F16.9°C 58% 6.4 mph SSE10.3 kmh SSE 6.9 mph11.1 kmh 29.57 in1001.4 mb 0.00 in0.0 mm 0.00 in/hr0.0 mm/hr 0.00 in0.0 mm
05:34 PM 78.1°F25.6°C 62.2°F16.8°C 58% 7.3 mph S11.7 kmh S 9.4 mph15.1 kmh 29.56 in1001.0 mb 0.00 in0.0 mm 0.00 in/hr0.0 mm/hr 0.00 in0.0 mm
05:39 PM 77.9°F25.5°C 62.0°F16.7°C 58% 7.3 mph SW11.7 kmh SW 11.0 mph17.7 kmh 29.56 in1001.0 mb 0.00 in0.0 mm 0.00 in/hr0.0 mm/hr 0.00 in0.0 mm
05:43 PM 77.6°F25.3°C 61.1°F16.2°C 57% 5.0 mph S8.0 kmh S 11.0 mph17.7 kmh 29.56 in1001.0 mb 0.00 in0.0 mm 0.00 in/hr0.0 mm/hr 0.00 in0.0 mm
05:48 PM 77.6°F25.3°C 62.6°F17.0°C 60% 6.3 mph SE10.1 kmh SE 9.8 mph15.8 kmh 29.55 in1000.7 mb 0.00 in0.0 mm 0.00 in/hr0.0 mm/hr 0.00 in0.0 mm
05:53 PM 77.4°F25.2°C 62.9°F17.2°C 61% 10.2 mph SW16.4 kmh SW 11.2 mph18.0 kmh 29.55 in1000.7 mb 0.00 in0.0 mm 0.00 in/hr0.0 mm/hr 0.00 in0.0 mm
05:58 PM 77.2°F25.1°C 62.3°F16.8°C 60% 7.1 mph SW11.4 kmh SW 11.2 mph18.0 kmh 29.55 in1000.7 mb 0.00 in0.0 mm 0.00 in/hr0.0 mm/hr 0.00 in0.0 mm
06:04 PM 77.0°F25.0°C 62.1°F16.7°C 60% 5.8 mph S9.3 kmh S 11.6 mph18.7 kmh 29.55 in1000.7 mb 0.00 in0.0 mm 0.00 in/hr0.0 mm/hr 0.00 in0.0 mm
06:09 PM 76.9°F24.9°C 61.9°F16.6°C 60% 5.5 mph SSW8.9 kmh SSW 11.6 mph18.7 kmh 29.55 in1000.7 mb 0.00 in0.0 mm 0.00 in/hr0.0 mm/hr 0.00 in0.0 mm
06:14 PM 76.7°F24.8°C 62.6°F17.0°C 62% 7.4 mph SSW11.9 kmh SSW 9.2 mph14.8 kmh 29.55 in1000.7 mb 0.00 in0.0 mm 0.00 in/hr0.0 mm/hr 0.00 in0.0 mm
06:19 PM 76.5°F24.7°C 62.9°F17.2°C 63% 8.6 mph SSW13.8 kmh SSW 9.2 mph14.8 kmh 29.55 in1000.7 mb 0.00 in0.0 mm 0.00 in/hr0.0 mm/hr 0.00 in0.0 mm
06:24 PM 76.3°F24.6°C 63.2°F17.3°C 64% 5.2 mph WSW8.4 kmh WSW 9.8 mph15.8 kmh 29.55 in1000.7 mb 0.00 in0.0 mm 0.00 in/hr0.0 mm/hr 0.00 in0.0 mm
06:29 PM 76.1°F24.5°C 63.1°F17.3°C 64% 5.4 mph SW8.7 kmh SW 9.8 mph15.8 kmh 29.54 in1000.3 mb 0.00 in0.0 mm 0.00 in/hr0.0 mm/hr 0.00 in0.0 mm
06:34 PM 76.0°F24.4°C 62.9°F17.2°C 64% 7.6 mph SW12.2 kmh SW 11.2 mph18.0 kmh 29.54 in1000.3 mb 0.00 in0.0 mm 0.00 in/hr0.0 mm/hr 0.00 in0.0 mm
06:39 PM 75.8°F24.3°C 63.2°F17.3°C 65% 9.2 mph SW14.8 kmh SW 14.1 mph22.7 kmh 29.54 in1000.3 mb 0.00 in0.0 mm 0.00 in/hr0.0 mm/hr 0.00 in0.0 mm
06:43 PM 75.6°F24.2°C 62.6°F17.0°C 64% 7.9 mph SW12.7 kmh SW 14.1 mph22.7 kmh 29.54 in1000.3 mb 0.00 in0.0 mm 0.00 in/hr0.0 mm/hr 0.00 in0.0 mm
06:48 PM 75.6°F24.2°C 63.0°F17.2°C 65% 5.3 mph SW8.5 kmh SW 9.4 mph15.1 kmh 29.54 in1000.3 mb 0.00 in0.0 mm 0.00 in/hr0.0 mm/hr 0.00 in0.0 mm
06:53 PM 75.4°F24.1°C 62.4°F16.9°C 64% 2.5 mph SSE4.0 kmh SSE 8.9 mph14.3 kmh 29.54 in1000.3 mb 0.00 in0.0 mm 0.00 in/hr0.0 mm/hr 0.00 in0.0 mm
06:58 PM 75.4°F24.1°C 62.8°F17.1°C 65% 5.2 mph SW8.4 kmh SW 8.9 mph14.3 kmh 29.54 in1000.3 mb 0.00 in0.0 mm 0.00 in/hr0.0 mm/hr 0.00 in0.0 mm
07:04 PM 75.2°F24.0°C 62.6°F17.0°C 65% 3.1 mph SSW5.0 kmh SSW 11.4 mph18.3 kmh 29.54 in1000.3 mb 0.00 in0.0 mm 0.00 in/hr0.0 mm/hr 0.00 in0.0 mm
07:09 PM 75.2°F24.0°C 63.1°F17.3°C 66% 7.5 mph S12.1 kmh S 11.4 mph18.3 kmh 29.54 in1000.3 mb 0.00 in0.0 mm 0.00 in/hr0.0 mm/hr 0.00 in0.0 mm
07:14 PM 75.1°F23.9°C 62.9°F17.2°C 66% 7.6 mph SSW12.2 kmh SSW 11.9 mph19.2 kmh 29.54 in1000.3 mb 0.00 in0.0 mm 0.00 in/hr0.0 mm/hr 0.00 in0.0 mm
07:19 PM 74.9°F23.8°C 62.7°F17.1°C 66% 5.9 mph SSW9.5 kmh SSW 11.9 mph19.2 kmh 29.54 in1000.3 mb 0.00 in0.0 mm 0.00 in/hr0.0 mm/hr 0.00 in0.0 mm
07:24 PM 74.9°F23.8°C 62.7°F17.1°C 66% 6.0 mph SSW9.7 kmh SSW 11.4 mph18.3 kmh 29.54 in1000.3 mb 0.00 in0.0 mm 0.00 in/hr0.0 mm/hr 0.00 in0.0 mm
07:29 PM 74.7°F23.7°C 63.0°F17.2°C 67% 4.2 mph SSW6.8 kmh SSW 7.6 mph12.2 kmh 29.54 in1000.3 mb 0.00 in0.0 mm 0.00 in/hr0.0 mm/hr 0.00 in0.0 mm
07:34 PM 74.5°F23.6°C 62.4°F16.9°C 66% 4.6 mph SSE7.4 kmh SSE 7.4 mph11.9 kmh 29.54 in1000.3 mb 0.00 in0.0 mm 0.00 in/hr0.0 mm/hr 0.00 in0.0 mm
07:39 PM 74.5°F23.6°C 63.3°F17.4°C 68% 5.4 mph SSW8.7 kmh SSW 6.7 mph10.8 kmh 29.54 in1000.3 mb 0.00 in0.0 mm 0.00 in/hr0.0 mm/hr 0.00 in0.0 mm
07:44 PM 74.3°F23.5°C 63.5°F17.5°C 69% 4.5 mph SSW7.2 kmh SSW 6.0 mph9.7 kmh 29.53 in1000.0 mb 0.00 in0.0 mm 0.00 in/hr0.0 mm/hr 0.00 in0.0 mm
07:48 PM 74.2°F23.4°C 63.4°F17.4°C 69% 6.2 mph S10.0 kmh S 7.2 mph11.6 kmh 29.53 in1000.0 mb 0.00 in0.0 mm 0.00 in/hr0.0 mm/hr 0.00 in0.0 mm
07:53 PM 74.2°F23.4°C 63.8°F17.7°C 70% 6.2 mph SW10.0 kmh SW 8.5 mph13.7 kmh 29.53 in1000.0 mb 0.00 in0.0 mm 0.00 in/hr0.0 mm/hr 0.00 in0.0 mm
07:58 PM 74.0°F23.3°C 63.6°F17.6°C 70% 3.9 mph SSW6.3 kmh SSW 8.5 mph13.7 kmh 29.53 in1000.0 mb 0.00 in0.0 mm 0.00 in/hr0.0 mm/hr 0.00 in0.0 mm
08:04 PM 73.8°F23.2°C 63.6°F17.6°C 70% 3.5 mph SW5.6 kmh SW 6.9 mph11.1 kmh 29.53 in1000.0 mb 0.00 in0.0 mm 0.00 in/hr0.0 mm/hr 0.00 in0.0 mm
08:09 PM 73.8°F23.2°C 63.9°F17.7°C 71% 2.9 mph SW4.7 kmh SW 5.1 mph8.2 kmh 29.53 in1000.0 mb 0.00 in0.0 mm 0.00 in/hr0.0 mm/hr 0.00 in0.0 mm
08:14 PM 73.8°F23.2°C 64.3°F17.9°C 72% 5.9 mph S9.5 kmh S 6.3 mph10.1 kmh 29.53 in1000.0 mb 0.00 in0.0 mm 0.00 in/hr0.0 mm/hr 0.00 in0.0 mm
08:19 PM 73.6°F23.1°C 63.7°F17.6°C 71% 5.2 mph SSW8.4 kmh SSW 6.3 mph10.1 kmh 29.53 in1000.0 mb 0.00 in0.0 mm 0.00 in/hr0.0 mm/hr 0.00 in0.0 mm
08:24 PM 73.6°F23.1°C 64.1°F17.8°C 72% 4.9 mph S7.9 kmh S 7.6 mph12.2 kmh 29.53 in1000.0 mb 0.00 in0.0 mm 0.00 in/hr0.0 mm/hr 0.00 in0.0 mm
08:29 PM 73.6°F23.1°C 64.1°F17.8°C 72% 4.8 mph SSE7.7 kmh SSE 11.4 mph18.3 kmh 29.53 in1000.0 mb 0.00 in0.0 mm 0.00 in/hr0.0 mm/hr 0.00 in0.0 mm
08:34 PM 73.4°F23.0°C 63.9°F17.7°C 72% 4.6 mph SW7.4 kmh SW 11.4 mph18.3 kmh 29.52 in999.7 mb 0.00 in0.0 mm 0.00 in/hr0.0 mm/hr 0.00 in0.0 mm
08:39 PM 73.4°F23.0°C 64.4°F18.0°C 73% 3.5 mph SW5.6 kmh SW 7.8 mph12.6 kmh 29.52 in999.7 mb 0.00 in0.0 mm 0.00 in/hr0.0 mm/hr 0.00 in0.0 mm
08:43 PM 73.4°F23.0°C 64.4°F18.0°C 73% 7.2 mph SW11.6 kmh SW 8.5 mph13.7 kmh 29.52 in999.7 mb 0.00 in0.0 mm 0.00 in/hr0.0 mm/hr 0.00 in0.0 mm
08:48 PM 73.3°F22.9°C 64.2°F17.9°C 73% 5.2 mph SW8.4 kmh SW 8.5 mph13.7 kmh 29.52 in999.7 mb 0.00 in0.0 mm 0.00 in/hr0.0 mm/hr 0.00 in0.0 mm
08:53 PM 73.3°F22.9°C 64.9°F18.3°C 75% 6.1 mph S9.8 kmh S 7.6 mph12.2 kmh 29.52 in999.7 mb 0.00 in0.0 mm 0.00 in/hr0.0 mm/hr 0.00 in0.0 mm
08:58 PM 73.3°F22.9°C 64.5°F18.1°C 74% 6.3 mph SSE10.1 kmh SSE 10.1 mph16.3 kmh 29.52 in999.7 mb 0.00 in0.0 mm 0.00 in/hr0.0 mm/hr 0.00 in0.0 mm
09:04 PM 73.3°F22.9°C 64.9°F18.3°C 75% 7.4 mph S11.9 kmh S 10.1 mph16.3 kmh 29.52 in999.7 mb 0.00 in0.0 mm 0.00 in/hr0.0 mm/hr 0.00 in0.0 mm
09:09 PM 73.1°F22.8°C 64.7°F18.2°C 75% 5.2 mph S8.4 kmh S 9.2 mph14.8 kmh 29.51 in999.3 mb 0.00 in0.0 mm 0.00 in/hr0.0 mm/hr 0.00 in0.0 mm
09:14 PM 73.1°F22.8°C 65.1°F18.4°C 76% 7.2 mph SSW11.6 kmh SSW 9.2 mph14.8 kmh 29.51 in999.3 mb 0.00 in0.0 mm 0.00 in/hr0.0 mm/hr 0.00 in0.0 mm
09:19 PM 73.1°F22.8°C 64.7°F18.2°C 75% 2.9 mph WSW4.7 kmh WSW 8.3 mph13.4 kmh 29.51 in999.3 mb 0.00 in0.0 mm 0.00 in/hr0.0 mm/hr 0.00 in0.0 mm
09:24 PM 73.1°F22.8°C 65.1°F18.4°C 76% 7.5 mph S12.1 kmh S 10.3 mph16.6 kmh 29.51 in999.3 mb 0.00 in0.0 mm 0.00 in/hr0.0 mm/hr 0.00 in0.0 mm
09:29 PM 72.9°F22.7°C 64.9°F18.3°C 76% 4.9 mph S7.9 kmh S 10.3 mph16.6 kmh 29.50 in999.0 mb 0.00 in0.0 mm 0.00 in/hr0.0 mm/hr 0.00 in0.0 mm
09:34 PM 72.9°F22.7°C 64.9°F18.3°C 76% 3.3 mph SW5.3 kmh SW 6.3 mph10.1 kmh 29.50 in999.0 mb 0.00 in0.0 mm 0.00 in/hr0.0 mm/hr 0.00 in0.0 mm
09:39 PM 72.7°F22.6°C 65.1°F18.4°C 77% 6.1 mph SSW9.8 kmh SSW 6.5 mph10.5 kmh 29.51 in999.3 mb 0.00 in0.0 mm 0.00 in/hr0.0 mm/hr 0.00 in0.0 mm
09:44 PM 72.7°F22.6°C 65.1°F18.4°C 77% 5.7 mph SSE9.2 kmh SSE 6.7 mph10.8 kmh 29.52 in999.7 mb 0.00 in0.0 mm 0.00 in/hr0.0 mm/hr 0.00 in0.0 mm
09:49 PM 72.5°F22.5°C 64.9°F18.3°C 77% 6.3 mph SW10.1 kmh SW 8.3 mph13.4 kmh 29.52 in999.7 mb 0.00 in0.0 mm 0.00 in/hr0.0 mm/hr 0.00 in0.0 mm
09:53 PM 72.5°F22.5°C 65.4°F18.6°C 78% 4.9 mph SW7.9 kmh SW 8.3 mph13.4 kmh 29.52 in999.7 mb 0.00 in0.0 mm 0.00 in/hr0.0 mm/hr 0.00 in0.0 mm
09:58 PM 72.4°F22.4°C 64.7°F18.2°C 77% 5.9 mph SW9.5 kmh SW 7.2 mph11.6 kmh 29.52 in999.7 mb 0.00 in0.0 mm 0.00 in/hr0.0 mm/hr 0.00 in0.0 mm
10:04 PM 72.4°F22.4°C 64.7°F18.2°C 77% 4.7 mph SSW7.6 kmh SSW 7.2 mph11.6 kmh 29.52 in999.7 mb 0.00 in0.0 mm 0.00 in/hr0.0 mm/hr 0.00 in0.0 mm
10:09 PM 72.4°F22.4°C 64.7°F18.2°C 77% 5.1 mph S8.2 kmh S 7.6 mph12.2 kmh 29.52 in999.7 mb 0.00 in0.0 mm 0.00 in/hr0.0 mm/hr 0.00 in0.0 mm
10:14 PM 72.2°F22.3°C 65.0°F18.3°C 78% 4.5 mph SW7.2 kmh SW 7.6 mph12.2 kmh 29.52 in999.7 mb 0.00 in0.0 mm 0.00 in/hr0.0 mm/hr 0.00 in0.0 mm
10:19 PM 72.2°F22.3°C 65.0°F18.3°C 78% 4.0 mph SSW6.4 kmh SSW 6.7 mph10.8 kmh 29.52 in999.7 mb 0.00 in0.0 mm 0.00 in/hr0.0 mm/hr 0.00 in0.0 mm
10:24 PM 72.0°F22.2°C 64.8°F18.2°C 78% 6.3 mph SW10.1 kmh SW 7.4 mph11.9 kmh 29.52 in999.7 mb 0.00 in0.0 mm 0.00 in/hr0.0 mm/hr 0.00 in0.0 mm
10:29 PM 72.0°F22.2°C 65.2°F18.4°C 79% 6.9 mph SW11.1 kmh SW 7.6 mph12.2 kmh 29.52 in999.7 mb 0.00 in0.0 mm 0.00 in/hr0.0 mm/hr 0.00 in0.0 mm
10:34 PM 72.0°F22.2°C 65.2°F18.4°C 79% 4.9 mph SW7.9 kmh SW 7.6 mph12.2 kmh 29.52 in999.7 mb 0.00 in0.0 mm 0.00 in/hr0.0 mm/hr 0.00 in0.0 mm
10:39 PM 71.8°F22.1°C 65.0°F18.3°C 79% 8.0 mph SW12.9 kmh SW 12.3 mph19.8 kmh 29.52 in999.7 mb 0.00 in0.0 mm 0.00 in/hr0.0 mm/hr 0.00 in0.0 mm
10:44 PM 71.6°F22.0°C 64.8°F18.2°C 79% 6.6 mph SW10.6 kmh SW 12.3 mph19.8 kmh 29.52 in999.7 mb 0.00 in0.0 mm 0.00 in/hr0.0 mm/hr 0.00 in0.0 mm
10:49 PM 71.6°F22.0°C 64.8°F18.2°C 79% 7.2 mph SW11.6 kmh SW 13.2 mph21.2 kmh 29.52 in999.7 mb 0.00 in0.0 mm 0.00 in/hr0.0 mm/hr 0.00 in0.0 mm
10:53 PM 71.6°F22.0°C 64.8°F18.2°C 79% 5.9 mph SW9.5 kmh SW 13.2 mph21.2 kmh 29.52 in999.7 mb 0.00 in0.0 mm 0.00 in/hr0.0 mm/hr 0.00 in0.0 mm
10:58 PM 71.6°F22.0°C 65.2°F18.4°C 80% 5.8 mph SW9.3 kmh SW 11.9 mph19.2 kmh 29.51 in999.3 mb 0.00 in0.0 mm 0.00 in/hr0.0 mm/hr 0.00 in0.0 mm
11:04 PM 71.5°F21.9°C 65.0°F18.3°C 80% 9.1 mph SSW14.6 kmh SSW 11.9 mph19.2 kmh 29.51 in999.3 mb 0.00 in0.0 mm 0.00 in/hr0.0 mm/hr 0.00 in0.0 mm
11:09 PM 71.3°F21.8°C 64.8°F18.2°C 80% 6.2 mph WSW10.0 kmh WSW 10.5 mph16.9 kmh 29.51 in999.3 mb 0.00 in0.0 mm 0.00 in/hr0.0 mm/hr 0.00 in0.0 mm
11:14 PM 71.3°F21.8°C 64.8°F18.2°C 80% 3.7 mph SW6.0 kmh SW 10.5 mph16.9 kmh 29.50 in999.0 mb 0.00 in0.0 mm 0.00 in/hr0.0 mm/hr 0.00 in0.0 mm
11:19 PM 71.1°F21.7°C 64.6°F18.1°C 80% 7.7 mph SW12.4 kmh SW 9.4 mph15.1 kmh 29.50 in999.0 mb 0.00 in0.0 mm 0.00 in/hr0.0 mm/hr 0.00 in0.0 mm
11:24 PM 71.1°F21.7°C 64.6°F18.1°C 80% 8.6 mph SW13.8 kmh SW 9.4 mph15.1 kmh 29.50 in999.0 mb 0.00 in0.0 mm 0.00 in/hr0.0 mm/hr 0.00 in0.0 mm
11:29 PM 70.9°F21.6°C 64.4°F18.0°C 80% 6.3 mph S10.1 kmh S 10.5 mph16.9 kmh 29.50 in999.0 mb 0.00 in0.0 mm 0.00 in/hr0.0 mm/hr 0.00 in0.0 mm
11:34 PM 70.9°F21.6°C 64.4°F18.0°C 80% 5.6 mph SW9.0 kmh SW 10.5 mph16.9 kmh 29.50 in999.0 mb 0.00 in0.0 mm 0.00 in/hr0.0 mm/hr 0.00 in0.0 mm
11:39 PM 70.7°F21.5°C 64.6°F18.1°C 81% 4.7 mph SW7.6 kmh SW 9.6 mph15.4 kmh 29.50 in999.0 mb 0.00 in0.0 mm 0.00 in/hr0.0 mm/hr 0.00 in0.0 mm
11:44 PM 70.6°F21.4°C 64.1°F17.8°C 80% 6.3 mph SW10.1 kmh SW 9.6 mph15.4 kmh 29.50 in999.0 mb 0.00 in0.0 mm 0.00 in/hr0.0 mm/hr 0.00 in0.0 mm
11:49 PM 70.6°F21.4°C 64.5°F18.1°C 81% 5.5 mph SW8.9 kmh SW 9.2 mph14.8 kmh 29.50 in999.0 mb 0.00 in0.0 mm 0.00 in/hr0.0 mm/hr 0.00 in0.0 mm
11:54 PM 70.6°F21.4°C 64.5°F18.1°C 81% 4.3 mph SW6.9 kmh SW 7.6 mph12.2 kmh 29.50 in999.0 mb 0.00 in0.0 mm 0.00 in/hr0.0 mm/hr 0.00 in0.0 mm
11:59 PM 70.6°F21.4°C 64.8°F18.2°C 82% 4.8 mph SSW7.7 kmh SSW 10.3 mph16.6 kmh 29.50 in999.0 mb 0.00 in0.0 mm 0.00 in/hr0.0 mm/hr 0.00 in0.0 mm